createdAt,value
2019-03-26T00:00:16.366Z,0.40
2019-03-26T00:02:42.651Z,0.50
2019-03-26T00:05:08.967Z,0.30
2019-03-26T00:07:35.414Z,0.60
2019-03-26T00:10:01.745Z,0.40
2019-03-26T00:12:28.293Z,0.40
2019-03-26T00:14:54.657Z,0.30
2019-03-26T00:17:21.079Z,0.40
2019-03-26T00:19:47.589Z,0.33
2019-03-26T00:22:14.020Z,0.40
2019-03-26T00:24:40.427Z,0.30
2019-03-26T00:27:08.009Z,0.42
2019-03-26T00:29:34.803Z,0.30
2019-03-26T00:32:01.416Z,0.40
2019-03-26T00:34:27.748Z,0.30
2019-03-26T00:36:54.052Z,0.40
2019-03-26T00:39:20.559Z,0.35
2019-03-26T00:41:46.885Z,0.30
2019-03-26T00:44:13.291Z,0.35
2019-03-26T00:46:39.943Z,0.40
2019-03-26T00:49:06.346Z,0.42
2019-03-26T00:51:32.651Z,0.30
2019-03-26T00:53:58.980Z,0.40
2019-03-26T00:56:25.392Z,0.57
2019-03-26T00:58:51.731Z,0.65
2019-03-26T01:01:18.388Z,0.33
2019-03-26T01:03:44.800Z,0.42
2019-03-26T01:06:11.241Z,0.30
2019-03-26T01:08:37.541Z,0.25
2019-03-26T01:11:04.197Z,0.35
2019-03-26T01:13:30.512Z,0.50
2019-03-26T01:15:56.825Z,0.40
2019-03-26T01:18:23.250Z,0.50
2019-03-26T01:20:49.554Z,0.30
2019-03-26T01:23:15.883Z,0.50
2019-03-26T01:25:42.412Z,0.35
2019-03-26T01:28:08.724Z,0.30
2019-03-26T01:30:35.160Z,0.20
2019-03-26T01:33:01.580Z,0.37
2019-03-26T01:35:28.127Z,0.20
2019-03-26T01:37:54.430Z,0.80
2019-03-26T01:40:20.859Z,0.42
2019-03-26T01:42:47.184Z,0.33
2019-03-26T01:45:13.597Z,0.40
2019-03-26T01:47:39.910Z,0.60
2019-03-26T01:50:06.739Z,0.40
2019-03-26T01:52:33.156Z,0.40
2019-03-26T01:54:59.600Z,0.28
2019-03-26T01:57:26.223Z,0.47
2019-03-26T01:59:52.656Z,0.30
2019-03-26T02:02:19.297Z,0.50
2019-03-26T02:04:58.937Z,0.20
2019-03-26T02:07:14.395Z,0.40
2019-03-26T02:09:41.023Z,0.25
2019-03-26T02:12:07.452Z,0.30
2019-03-26T02:14:33.992Z,0.28
2019-03-26T02:17:00.513Z,0.20
2019-03-26T02:19:27.047Z,0.25
2019-03-26T02:21:53.698Z,0.20
2019-03-26T02:24:20.225Z,0.25
2019-03-26T02:26:46.763Z,0.40
2019-03-26T02:29:13.407Z,0.30
2019-03-26T02:31:40.076Z,0.20
2019-03-26T02:34:06.487Z,0.17
2019-03-26T02:36:33.012Z,0.20
2019-03-26T02:38:59.808Z,0.35
2019-03-26T02:41:26.298Z,0.53
2019-03-26T02:43:52.951Z,0.25
2019-03-26T02:46:19.579Z,0.20
2019-03-26T02:48:46.204Z,0.37
2019-03-26T02:51:12.836Z,0.35
2019-03-26T02:53:39.362Z,0.30
2019-03-26T02:56:05.934Z,0.20
2019-03-26T02:58:32.451Z,0.45
2019-03-26T03:00:58.874Z,0.20
2019-03-26T03:03:25.512Z,0.40
2019-03-26T03:05:52.167Z,0.20
2019-03-26T03:08:18.720Z,0.28
2019-03-26T03:10:45.356Z,0.30
2019-03-26T03:13:11.864Z,0.10
2019-03-26T03:15:38.403Z,0.20
2019-03-26T03:18:04.920Z,0.40
2019-03-26T03:20:31.457Z,0.57
2019-03-26T03:22:58.075Z,0.30
2019-03-26T03:25:24.610Z,0.10
2019-03-26T03:27:51.180Z,0.37
2019-03-26T03:30:18.218Z,0.50
2019-03-26T03:32:44.844Z,0.35
2019-03-26T03:35:11.369Z,0.30
2019-03-26T03:37:38.001Z,0.93
2019-03-26T03:40:04.551Z,0.70
2019-03-26T03:42:38.841Z,0.88
2019-03-26T03:45:22.662Z,0.90
2019-03-26T03:47:49.960Z,0.60
2019-03-26T03:50:16.584Z,0.90
2019-03-26T03:52:45.284Z,0.70
2019-03-26T03:55:12.015Z,0.40
2019-03-26T03:57:38.528Z,0.62
2019-03-26T04:00:17.601Z,0.60
2019-03-26T04:02:46.029Z,0.42
2019-03-26T04:05:12.882Z,0.40
2019-03-26T04:07:39.240Z,0.23
2019-03-26T04:10:05.783Z,0.30
2019-03-26T04:12:32.183Z,0.40
2019-03-26T04:14:58.589Z,0.40
2019-03-26T04:17:24.932Z,0.30
2019-03-26T04:19:51.352Z,0.40
2019-03-26T04:22:18.003Z,0.70
2019-03-26T04:24:44.329Z,0.37
2019-03-26T04:27:10.615Z,0.40
2019-03-26T04:29:37.085Z,0.40
2019-03-26T04:32:03.551Z,0.40
2019-03-26T04:34:29.863Z,0.40
2019-03-26T04:36:56.371Z,0.62
2019-03-26T04:39:23.041Z,0.35
2019-03-26T04:41:49.333Z,0.40
2019-03-26T04:44:15.651Z,0.30
2019-03-26T04:46:41.965Z,0.40
2019-03-26T04:49:08.371Z,0.45
2019-03-26T04:51:34.703Z,0.20
2019-03-26T04:54:01.504Z,0.20
2019-03-26T04:56:28.179Z,0.30
2019-03-26T04:58:54.704Z,0.50
2019-03-26T05:01:21.022Z,0.82
2019-03-26T05:03:47.653Z,0.90
2019-03-26T05:06:14.101Z,0.30
2019-03-26T05:08:40.550Z,0.40
2019-03-26T05:11:07.180Z,0.30
2019-03-26T05:13:33.756Z,0.20
2019-03-26T05:16:00.189Z,0.45
2019-03-26T05:18:26.603Z,0.30
2019-03-26T05:20:53.059Z,0.30
2019-03-26T05:23:19.381Z,0.30
2019-03-26T05:25:45.907Z,0.40
2019-03-26T05:28:12.232Z,0.50
2019-03-26T05:30:38.553Z,0.65
2019-03-26T05:33:04.996Z,0.60
2019-03-26T05:35:31.514Z,0.50
2019-03-26T05:37:57.815Z,0.20
2019-03-26T05:40:24.240Z,0.35
2019-03-26T05:42:50.645Z,0.45
2019-03-26T05:45:16.971Z,0.50
2019-03-26T05:47:43.280Z,0.30
2019-03-26T05:50:09.909Z,0.40
2019-03-26T05:52:36.652Z,0.40
2019-03-26T05:55:06.079Z,0.33
2019-03-26T05:57:32.519Z,0.50
2019-03-26T05:59:58.832Z,0.62
2019-03-26T06:02:25.143Z,0.30
2019-03-26T06:04:51.465Z,0.40
2019-03-26T06:07:17.887Z,0.40
2019-03-26T06:09:44.335Z,0.33
2019-03-26T06:12:10.646Z,0.40
2019-03-26T06:14:36.948Z,0.45
2019-03-26T06:17:03.369Z,0.30
2019-03-26T06:19:29.681Z,0.53
2019-03-26T06:21:56.007Z,0.30
2019-03-26T06:24:22.316Z,0.50
2019-03-26T06:26:48.731Z,0.30
2019-03-26T06:29:15.159Z,0.20
2019-03-26T06:31:41.483Z,0.30
2019-03-26T06:34:10.504Z,0.30
2019-03-26T06:36:36.272Z,0.30
2019-03-26T06:39:16.695Z,0.78
2019-03-26T06:41:43.021Z,0.33
2019-03-26T06:44:09.429Z,0.40
2019-03-26T06:46:35.833Z,0.68
2019-03-26T06:49:02.352Z,0.23
2019-03-26T06:51:28.755Z,0.25
2019-03-26T06:53:55.193Z,0.50
2019-03-26T06:56:21.495Z,0.28
2019-03-26T06:58:48.044Z,0.30
2019-03-26T07:01:14.313Z,0.80
2019-03-26T07:03:40.624Z,0.30
2019-03-26T07:06:07.061Z,0.47
2019-03-26T07:08:33.384Z,0.40
2019-03-26T07:10:59.683Z,0.80
2019-03-26T07:13:26.020Z,0.50
2019-03-26T07:15:52.531Z,0.72
2019-03-26T07:18:18.807Z,0.70
2019-03-26T07:20:45.127Z,0.53
2019-03-26T07:23:11.524Z,0.70
2019-03-26T07:25:37.935Z,0.60
2019-03-26T07:28:04.621Z,0.40
2019-03-26T07:30:36.829Z,0.60
2019-03-26T07:33:03.262Z,0.57
2019-03-26T07:35:29.560Z,0.80
2019-03-26T07:37:55.888Z,0.50
2019-03-26T07:40:22.403Z,0.40
2019-03-26T07:42:48.803Z,0.70
2019-03-26T07:45:15.285Z,0.53
2019-03-26T07:47:41.710Z,0.72
2019-03-26T07:50:08.274Z,0.57
2019-03-26T07:52:34.584Z,0.60
2019-03-26T07:55:01.253Z,0.72
2019-03-26T07:57:27.576Z,0.40
2019-03-26T07:59:54.009Z,0.53
2019-03-26T08:02:20.325Z,0.62
2019-03-26T08:04:46.735Z,0.78
2019-03-26T08:07:13.283Z,0.82
2019-03-26T08:09:39.718Z,0.90
2019-03-26T08:12:06.021Z,0.82
2019-03-26T08:14:32.579Z,1.00
2019-03-26T08:16:59.075Z,1.20
2019-03-26T08:19:25.412Z,0.95
2019-03-26T08:21:51.819Z,1.00
2019-03-26T08:24:18.332Z,0.75
2019-03-26T08:26:44.897Z,1.10
2019-03-26T08:29:11.203Z,1.20
2019-03-26T08:31:38.311Z,1.10
2019-03-26T08:34:04.830Z,1.02
2019-03-26T08:36:31.135Z,1.05
2019-03-26T08:38:57.463Z,0.85
2019-03-26T08:41:24.004Z,1.20
2019-03-26T08:43:50.631Z,0.90
2019-03-26T08:46:17.069Z,0.80
2019-03-26T08:48:43.480Z,0.80
2019-03-26T08:51:09.812Z,0.60
2019-03-26T08:53:36.123Z,0.57
2019-03-26T08:56:10.817Z,0.80
2019-03-26T08:58:42.362Z,1.05
2019-03-26T09:01:16.977Z,0.72
2019-03-26T09:03:48.252Z,0.90
2019-03-26T09:06:14.720Z,0.80
2019-03-26T09:08:41.061Z,0.70
2019-03-26T09:11:07.566Z,0.70
2019-03-26T09:13:33.871Z,0.57
2019-03-26T09:16:00.428Z,0.65
2019-03-26T09:18:26.760Z,0.85
2019-03-26T09:20:53.091Z,0.70
2019-03-26T09:23:19.467Z,0.60
2019-03-26T09:25:45.779Z,0.80
2019-03-26T09:28:12.426Z,0.80
2019-03-26T09:30:38.952Z,0.80
2019-03-26T09:33:05.504Z,0.62
2019-03-26T09:35:31.839Z,0.70
2019-03-26T09:37:58.568Z,0.98
2019-03-26T09:40:24.904Z,0.75
2019-03-26T09:42:51.308Z,0.70
2019-03-26T09:45:17.823Z,0.90
2019-03-26T09:47:50.446Z,1.20
2019-03-26T09:50:23.445Z,1.00
2019-03-26T09:52:49.858Z,1.00
2019-03-26T09:55:16.679Z,0.78
2019-03-26T09:57:42.963Z,0.95
2019-03-26T10:00:10.507Z,0.80
2019-03-26T10:02:36.916Z,1.22
2019-03-26T10:05:05.364Z,1.17
2019-03-26T10:07:31.879Z,1.30
2019-03-26T10:09:58.302Z,1.05
2019-03-26T10:12:24.736Z,1.10
2019-03-26T10:14:51.199Z,1.65
2019-03-26T10:17:17.931Z,0.90
2019-03-26T10:19:44.331Z,0.90
2019-03-26T10:22:11.098Z,0.85
2019-03-26T10:24:37.771Z,0.98
2019-03-26T10:27:04.283Z,1.00
2019-03-26T10:29:31.314Z,0.90
2019-03-26T10:31:57.827Z,0.70
2019-03-26T10:34:24.489Z,1.00
2019-03-26T10:36:52.555Z,1.15
2019-03-26T10:39:18.825Z,1.30
2019-03-26T10:41:45.273Z,1.00
2019-03-26T10:44:11.689Z,0.80
2019-03-26T10:46:38.304Z,1.10
2019-03-26T10:49:04.736Z,0.90
2019-03-26T10:51:31.251Z,0.90
2019-03-26T10:53:57.683Z,1.10
2019-03-26T10:56:23.983Z,1.05
2019-03-26T10:58:50.922Z,1.02
2019-03-26T11:01:17.212Z,0.90
2019-03-26T11:03:43.871Z,1.20
2019-03-26T11:06:11.338Z,0.93
2019-03-26T11:08:37.969Z,0.90
2019-03-26T11:11:04.647Z,1.10
2019-03-26T11:13:31.172Z,0.70
2019-03-26T11:15:57.591Z,1.10
2019-03-26T11:18:23.936Z,1.05
2019-03-26T11:21:01.714Z,1.37
2019-03-26T11:23:18.480Z,1.17
2019-03-26T11:25:45.023Z,1.10
2019-03-26T11:28:11.536Z,1.30
2019-03-26T11:30:37.863Z,1.20
2019-03-26T11:33:04.277Z,0.80
2019-03-26T11:35:30.791Z,1.17
2019-03-26T11:37:57.205Z,0.93
2019-03-26T11:40:26.116Z,0.80
2019-03-26T11:42:52.875Z,0.80
2019-03-26T11:45:19.306Z,0.57
2019-03-26T11:47:45.971Z,1.05
2019-03-26T11:50:12.656Z,0.85
2019-03-26T11:52:39.417Z,0.90
2019-03-26T11:55:07.959Z,0.80
2019-03-26T11:57:34.271Z,0.70
2019-03-26T12:00:00.710Z,0.80
2019-03-26T12:02:27.181Z,0.85
2019-03-26T12:04:53.848Z,0.90
2019-03-26T12:07:20.288Z,0.82
2019-03-26T12:09:47.023Z,0.75
2019-03-26T12:12:13.320Z,0.70
2019-03-26T12:14:40.183Z,0.85
2019-03-26T12:17:06.719Z,0.68
2019-03-26T12:19:33.151Z,0.75
2019-03-26T12:21:59.494Z,0.60
2019-03-26T12:24:25.839Z,0.80
2019-03-26T12:26:52.210Z,0.80
2019-03-26T12:29:18.541Z,0.80
2019-03-26T12:31:44.975Z,0.82
2019-03-26T12:34:11.387Z,0.60
2019-03-26T12:36:40.264Z,0.53
2019-03-26T12:39:06.339Z,0.70
2019-03-26T12:41:32.658Z,0.60
2019-03-26T12:43:58.961Z,0.60
2019-03-26T12:46:25.373Z,0.68
2019-03-26T12:48:51.688Z,0.50
2019-03-26T12:51:17.992Z,0.65
2019-03-26T12:53:44.319Z,0.60
2019-03-26T12:56:10.778Z,0.95
2019-03-26T12:58:37.196Z,3.15
2019-03-26T13:01:03.848Z,2.50
2019-03-26T13:03:30.266Z,2.40
2019-03-26T13:05:56.612Z,2.17
2019-03-26T13:08:23.128Z,1.75
2019-03-26T13:10:53.730Z,1.50
2019-03-26T13:13:18.462Z,1.40
2019-03-26T13:15:45.076Z,1.00
2019-03-26T13:18:11.511Z,1.12
2019-03-26T13:20:38.453Z,1.10
2019-03-26T13:23:04.748Z,1.07
2019-03-26T13:25:31.183Z,0.78
2019-03-26T13:27:57.489Z,0.70
2019-03-26T13:30:23.810Z,0.80
2019-03-26T13:32:50.119Z,0.80
2019-03-26T13:35:16.524Z,0.85
2019-03-26T13:37:43.069Z,0.80
2019-03-26T13:40:09.880Z,0.70
2019-03-26T13:42:36.315Z,0.60
2019-03-26T13:45:04.724Z,0.80
2019-03-26T13:47:31.135Z,0.55
2019-03-26T13:49:57.587Z,0.70
2019-03-26T13:52:24.103Z,0.80
2019-03-26T13:54:50.441Z,0.53
2019-03-26T13:57:16.739Z,1.00
2019-03-26T13:59:43.055Z,0.60
2019-03-26T14:02:09.599Z,0.62
2019-03-26T14:04:36.112Z,0.40
2019-03-26T14:07:02.560Z,0.62
2019-03-26T14:09:28.880Z,0.35
2019-03-26T14:11:57.623Z,0.53
2019-03-26T14:14:23.391Z,0.40
2019-03-26T14:16:49.778Z,0.50
2019-03-26T14:19:16.124Z,0.65
2019-03-26T14:21:42.528Z,0.60
2019-03-26T14:24:08.935Z,0.65
2019-03-26T14:26:35.835Z,0.60
2019-03-26T14:29:02.095Z,0.60
2019-03-26T14:31:28.544Z,0.70
2019-03-26T14:33:55.102Z,0.53
2019-03-26T14:36:21.511Z,0.70
2019-03-26T14:38:47.940Z,0.50
2019-03-26T14:41:14.345Z,0.50
2019-03-26T14:43:40.681Z,0.30
2019-03-26T14:46:07.112Z,0.50
2019-03-26T14:48:33.424Z,0.50
2019-03-26T14:50:59.861Z,0.50
2019-03-26T14:53:26.162Z,0.50
2019-03-26T14:55:52.597Z,0.37
2019-03-26T14:58:18.927Z,0.68
2019-03-26T15:00:48.010Z,0.70
2019-03-26T15:03:14.786Z,0.60
2019-03-26T15:05:41.323Z,0.53
2019-03-26T15:08:07.801Z,0.50
2019-03-26T15:10:34.700Z,0.53
2019-03-26T15:13:01.323Z,0.60
2019-03-26T15:15:27.738Z,0.60
2019-03-26T15:17:54.544Z,0.57
2019-03-26T15:20:20.858Z,0.93
2019-03-26T15:22:47.188Z,0.72
2019-03-26T15:25:13.487Z,0.68
2019-03-26T15:27:39.916Z,1.00
2019-03-26T15:30:09.603Z,0.90
2019-03-26T15:32:35.917Z,0.80
2019-03-26T15:35:05.865Z,0.82
2019-03-26T15:37:32.304Z,0.60
2019-03-26T15:39:58.614Z,0.70
2019-03-26T15:42:24.941Z,0.57
2019-03-26T15:44:51.263Z,0.70
2019-03-26T15:47:19.826Z,0.80
2019-03-26T15:49:49.030Z,0.82
2019-03-26T15:52:18.268Z,0.78
2019-03-26T15:54:44.581Z,0.68
2019-03-26T15:57:10.898Z,0.72
2019-03-26T15:59:37.339Z,0.53
2019-03-26T16:02:03.644Z,0.50
2019-03-26T16:04:29.975Z,0.70
2019-03-26T16:06:56.319Z,0.60
2019-03-26T16:09:22.720Z,0.55
2019-03-26T16:11:49.062Z,1.27
2019-03-26T16:14:15.363Z,3.87
2019-03-26T16:16:41.772Z,2.10
2019-03-26T16:19:08.094Z,2.72
2019-03-26T16:21:34.566Z,1.60
2019-03-26T16:24:01.151Z,2.33
2019-03-26T16:26:27.574Z,2.70
2019-03-26T16:28:53.984Z,2.65
2019-03-26T16:31:20.487Z,2.67
2019-03-26T16:33:46.812Z,2.12
2019-03-26T16:36:13.144Z,1.85
2019-03-26T16:38:39.460Z,2.10
2019-03-26T16:41:05.931Z,1.40
2019-03-26T16:43:32.204Z,1.30
2019-03-26T16:45:58.611Z,1.32
2019-03-26T16:48:25.071Z,1.20
2019-03-26T16:50:51.500Z,1.40
2019-03-26T16:53:17.812Z,1.00
2019-03-26T16:55:44.228Z,1.05
2019-03-26T16:58:10.640Z,0.82
2019-03-26T17:00:36.984Z,1.00
2019-03-26T17:03:03.391Z,0.82
2019-03-26T17:05:29.803Z,1.00
2019-03-26T17:07:56.116Z,1.10
2019-03-26T17:10:22.520Z,0.70
2019-03-26T17:12:49.071Z,0.70
2019-03-26T17:15:15.395Z,0.80
2019-03-26T17:17:41.708Z,1.17
2019-03-26T17:20:08.131Z,0.80
2019-03-26T17:22:34.447Z,0.70
2019-03-26T17:25:00.884Z,0.75
2019-03-26T17:27:29.118Z,0.55
2019-03-26T17:29:55.922Z,0.70
2019-03-26T17:32:22.223Z,0.60
2019-03-26T17:34:48.528Z,0.90
2019-03-26T17:37:14.945Z,1.17
2019-03-26T17:39:41.457Z,0.88
2019-03-26T17:42:17.005Z,1.00
2019-03-26T17:44:36.090Z,1.45
2019-03-26T17:47:02.615Z,0.88
2019-03-26T17:49:29.180Z,0.90
2019-03-26T17:51:55.651Z,0.93
2019-03-26T17:54:21.976Z,0.90
2019-03-26T17:56:48.369Z,0.80
2019-03-26T17:59:14.783Z,0.68
2019-03-26T18:01:41.304Z,0.60
2019-03-26T18:04:07.651Z,0.75
2019-03-26T18:06:34.287Z,1.10
2019-03-26T18:09:01.113Z,0.68
2019-03-26T18:11:27.559Z,0.90
2019-03-26T18:13:54.492Z,0.70
2019-03-26T18:16:21.060Z,0.88
2019-03-26T18:18:48.694Z,1.00
2019-03-26T18:21:15.531Z,0.70
2019-03-26T18:23:42.317Z,0.98
2019-03-26T18:26:15.294Z,0.80
2019-03-26T18:28:41.641Z,0.68
2019-03-26T18:31:08.074Z,1.15
2019-03-26T18:33:34.501Z,0.70
2019-03-26T18:36:00.930Z,0.42
2019-03-26T18:38:28.768Z,0.70
2019-03-26T18:40:55.174Z,0.50
2019-03-26T18:43:21.795Z,0.70
2019-03-26T18:45:48.186Z,0.90
2019-03-26T18:48:14.643Z,0.80
2019-03-26T18:50:41.182Z,0.55
2019-03-26T18:53:07.752Z,0.75
2019-03-26T18:55:34.157Z,0.75
2019-03-26T18:58:00.583Z,0.90
2019-03-26T19:00:35.690Z,0.75
2019-03-26T19:03:02.345Z,0.80
2019-03-26T19:05:28.695Z,0.70
2019-03-26T19:07:55.207Z,0.80
2019-03-26T19:10:28.979Z,1.00
2019-03-26T19:12:57.098Z,1.07
2019-03-26T19:15:24.083Z,0.93
2019-03-26T19:17:50.630Z,0.80
2019-03-26T19:20:17.024Z,0.70
2019-03-26T19:22:43.541Z,0.80
2019-03-26T19:25:09.957Z,0.88
2019-03-26T19:27:36.481Z,0.62
2019-03-26T19:30:05.217Z,0.62
2019-03-26T19:32:31.635Z,0.70
2019-03-26T19:34:57.940Z,0.60
2019-03-26T19:37:24.292Z,0.60
2019-03-26T19:39:51.772Z,0.75
2019-03-26T19:42:18.146Z,0.65
2019-03-26T19:44:44.455Z,0.82
2019-03-26T19:47:10.867Z,0.90
2019-03-26T19:49:37.537Z,0.50
2019-03-26T19:52:03.996Z,0.82
2019-03-26T19:54:30.564Z,0.90
2019-03-26T19:56:56.971Z,0.70
2019-03-26T19:59:23.524Z,0.80
2019-03-26T20:01:50.592Z,1.00
2019-03-26T20:04:17.247Z,1.50
2019-03-26T20:06:43.772Z,1.20
2019-03-26T20:09:10.184Z,1.12
2019-03-26T20:11:36.603Z,1.40
2019-03-26T20:14:03.050Z,1.27
2019-03-26T20:16:41.294Z,1.40
2019-03-26T20:18:57.601Z,1.40
2019-03-26T20:21:26.992Z,1.25
2019-03-26T20:23:53.307Z,1.40
2019-03-26T20:26:19.623Z,1.35
2019-03-26T20:28:45.936Z,1.27
2019-03-26T20:31:12.461Z,0.93
2019-03-26T20:33:42.130Z,1.32
2019-03-26T20:36:07.317Z,1.30
2019-03-26T20:38:33.853Z,1.32
2019-03-26T20:41:00.347Z,1.37
2019-03-26T20:43:36.723Z,1.22
2019-03-26T20:45:54.927Z,1.40
2019-03-26T20:48:21.456Z,1.67
2019-03-26T20:50:47.978Z,1.80
2019-03-26T20:53:14.424Z,1.57
2019-03-26T20:55:53.376Z,1.40
2019-03-26T20:58:09.164Z,1.05
2019-03-26T21:00:39.659Z,1.22
2019-03-26T21:03:06.384Z,1.20
2019-03-26T21:05:33.028Z,1.30
2019-03-26T21:07:59.332Z,1.10
2019-03-26T21:10:25.863Z,1.20
2019-03-26T21:12:52.520Z,1.10
2019-03-26T21:15:18.842Z,1.17
2019-03-26T21:17:45.384Z,1.30
2019-03-26T21:20:11.929Z,0.90
2019-03-26T21:22:38.464Z,0.80
2019-03-26T21:25:06.379Z,0.98
2019-03-26T21:27:32.689Z,0.80
2019-03-26T21:30:10.065Z,0.93
2019-03-26T21:32:27.336Z,0.90
2019-03-26T21:34:53.982Z,0.82
2019-03-26T21:37:20.813Z,0.93
2019-03-26T21:39:47.124Z,0.50
2019-03-26T21:42:16.591Z,1.07
2019-03-26T21:44:42.897Z,0.80
2019-03-26T21:47:09.319Z,0.68
2019-03-26T21:49:35.750Z,0.90
2019-03-26T21:52:02.175Z,0.80
2019-03-26T21:54:28.652Z,0.70
2019-03-26T21:56:54.960Z,0.82
2019-03-26T21:59:21.471Z,0.90
2019-03-26T22:01:47.790Z,0.80
2019-03-26T22:04:14.197Z,0.98
2019-03-26T22:06:40.659Z,0.90
2019-03-26T22:09:07.180Z,0.93
2019-03-26T22:11:33.485Z,0.80
2019-03-26T22:13:59.943Z,0.88
2019-03-26T22:16:26.497Z,0.90
2019-03-26T22:18:52.831Z,0.72
2019-03-26T22:21:19.356Z,0.98
2019-03-26T22:23:45.697Z,0.72
2019-03-26T22:26:12.016Z,0.80
2019-03-26T22:28:38.443Z,0.70
2019-03-26T22:31:06.291Z,0.57
2019-03-26T22:33:32.615Z,1.02
2019-03-26T22:35:59.265Z,0.80
2019-03-26T22:38:25.683Z,1.35
2019-03-26T22:40:53.484Z,0.70
2019-03-26T22:43:19.823Z,0.70
2019-03-26T22:45:46.600Z,0.68
2019-03-26T22:48:15.936Z,0.70
2019-03-26T22:50:42.500Z,0.60
2019-03-26T22:53:09.005Z,0.90
2019-03-26T22:55:35.643Z,0.50
2019-03-26T22:58:02.356Z,0.50
2019-03-26T23:00:30.504Z,0.50
2019-03-26T23:02:57.039Z,0.68
2019-03-26T23:05:23.453Z,0.85
2019-03-26T23:07:49.889Z,0.57
2019-03-26T23:10:17.122Z,0.50
2019-03-26T23:12:43.564Z,0.50
2019-03-26T23:15:15.929Z,0.62
2019-03-26T23:17:42.449Z,0.50
2019-03-26T23:20:08.855Z,0.80
2019-03-26T23:22:35.308Z,0.57
2019-03-26T23:25:01.744Z,0.50
2019-03-26T23:27:28.361Z,0.50
2019-03-26T23:29:54.792Z,0.50
2019-03-26T23:32:21.226Z,0.75
2019-03-26T23:34:47.563Z,0.50
2019-03-26T23:37:13.876Z,0.75
2019-03-26T23:39:40.664Z,0.42
2019-03-26T23:42:07.097Z,0.60
2019-03-26T23:44:33.616Z,0.40
2019-03-26T23:46:59.960Z,0.50
2019-03-26T23:49:26.588Z,0.40
2019-03-26T23:51:53.231Z,0.65
2019-03-26T23:54:19.695Z,0.40
2019-03-26T23:56:46.224Z,0.60
2019-03-26T23:59:12.617Z,0.50
